Terminal Aerodrome Forecast
Issued by NWS

Home | Current Version | Previous Version | Text Only | Print | Product List | Glossary On
Versions: 1 2 3 4 5 6 7 8 9 10 11 12 13 14 15 16 17 18 19 20 21 22 23 24 25 26 27 28 29 30 31 32 33 34 35 36 37 38 39 40 41 42
000
FTUS46 KOTX 260641 AAA
TAFPUW
TAF AMD
KPUW 260641Z 2607/2706 10006KT 3SM -RA BR OVC006
      TEMPO 2607/2611 2SM BR OVC004
     FM261100 24010KT 2SM BR OVC004
     FM261800 20012G19KT P6SM SCT018 OVC050=

USA.gov is the U.S. government's official web portal to all federal, state and local government web resources and services.